createdAt,value
2022-12-01T00:01:38.055Z,102491.25
2022-12-01T00:04:06.449Z,102491.28
2022-12-01T00:06:34.909Z,102496.72
2022-12-01T00:09:21.562Z,102494.31
2022-12-01T00:11:50.177Z,102494.06
2022-12-01T00:14:18.623Z,102489.31
2022-12-01T00:16:47.173Z,102497.88
2022-12-01T00:19:15.611Z,102496.28
2022-12-01T00:21:45.604Z,102492.84
2022-12-01T00:24:13.975Z,102482.63
2022-12-01T00:26:42.469Z,102487.97
2022-12-01T00:29:10.948Z,102487.69
2022-12-01T00:31:39.444Z,102487.78
2022-12-01T00:34:21.241Z,102488.41
2022-12-01T00:36:49.782Z,102482.84
2022-12-01T00:39:18.231Z,102484.72
2022-12-01T00:41:46.695Z,102484.75
2022-12-01T00:44:15.082Z,102486.81
2022-12-01T00:46:43.425Z,102489.50
2022-12-01T00:49:13.687Z,102489.44
2022-12-01T00:51:42.101Z,102495.91
2022-12-01T00:54:10.535Z,102487.22
2022-12-01T00:56:39.002Z,102478.53
2022-12-01T00:59:07.333Z,102493.06
2022-12-01T01:01:35.923Z,102492.88
2022-12-01T01:04:04.911Z,102488.94
2022-12-01T01:06:33.337Z,102491.88
2022-12-01T01:09:01.754Z,102491.63
2022-12-01T01:11:30.103Z,102493.47
2022-12-01T01:13:59.756Z,102496.63
2022-12-01T01:16:28.702Z,102501.63
2022-12-01T01:18:58.233Z,102497.50
2022-12-01T01:21:27.211Z,102500.63
2022-12-01T01:23:56.309Z,102508.06
2022-12-01T01:26:27.590Z,102504.47
2022-12-01T01:28:58.115Z,102515.22
2022-12-01T01:31:28.345Z,102508.56
2022-12-01T01:33:58.004Z,102520.44
2022-12-01T01:36:27.288Z,102522.56
2022-12-01T01:38:55.890Z,102530.53
2022-12-01T01:41:24.396Z,102525.66
2022-12-01T01:43:56.312Z,102525.06
2022-12-01T01:46:33.005Z,102532.00
2022-12-01T01:49:05.000Z,102525.78
2022-12-01T01:51:53.685Z,102523.31
2022-12-01T01:54:32.249Z,102521.38
2022-12-01T01:57:02.146Z,102528.69
2022-12-01T01:59:43.409Z,102531.16
2022-12-01T02:02:12.976Z,102530.66
2022-12-01T02:04:56.692Z,102536.13
2022-12-01T02:07:25.511Z,102534.06
2022-12-01T02:09:55.226Z,102523.56
2022-12-01T02:12:49.787Z,102522.00
2022-12-01T02:15:33.502Z,102521.38
2022-12-01T02:18:20.266Z,102517.97
2022-12-01T02:21:22.753Z,102527.84
2022-12-01T02:23:54.160Z,102534.31
2022-12-01T02:26:50.671Z,102530.03
2022-12-01T02:29:41.238Z,102518.09
2022-12-01T02:32:23.438Z,102515.41
2022-12-01T02:35:13.274Z,102517.41
2022-12-01T02:38:03.217Z,102518.31
2022-12-01T02:40:39.436Z,102519.63
2022-12-01T02:43:20.176Z,102517.97
2022-12-01T02:45:55.351Z,102522.91
2022-12-01T02:48:28.946Z,102520.13
2022-12-01T02:51:12.570Z,102530.91
2022-12-01T02:53:41.081Z,102520.16
2022-12-01T02:56:14.660Z,102521.69
2022-12-01T02:58:43.740Z,102524.63
2022-12-01T03:01:20.596Z,102529.66
2022-12-01T03:04:24.212Z,102531.63
2022-12-01T03:07:10.771Z,102533.28
2022-12-01T03:09:45.289Z,102533.28
2022-12-01T03:12:29.045Z,102521.47
2022-12-01T03:15:09.252Z,102523.31
2022-12-01T03:17:53.606Z,102523.69
2022-12-01T03:20:37.533Z,102519.75
2022-12-01T03:23:21.152Z,102530.41
2022-12-01T03:25:52.301Z,102521.00
2022-12-01T03:28:28.793Z,102519.38
2022-12-01T03:31:03.648Z,102518.19
2022-12-01T03:33:37.370Z,102519.84
2022-12-01T03:36:41.967Z,102513.91
2022-12-01T03:39:18.208Z,102514.94
2022-12-01T03:42:30.203Z,102526.69
2022-12-01T03:45:04.715Z,102523.31
2022-12-01T03:47:37.129Z,102529.41
2022-12-01T03:50:08.069Z,102527.84
2022-12-01T03:53:06.701Z,102525.28
2022-12-01T03:55:41.886Z,102528.69
2022-12-01T03:58:21.179Z,102522.91
2022-12-01T04:00:53.255Z,102519.47
2022-12-01T04:03:25.150Z,102524.25
2022-12-01T04:05:53.667Z,102525.97
2022-12-01T04:08:22.054Z,102533.81
2022-12-01T04:10:50.450Z,102532.75
2022-12-01T04:13:23.283Z,102534.56
2022-12-01T04:15:53.395Z,102534.28
2022-12-01T04:18:22.109Z,102540.28
2022-12-01T04:20:50.702Z,102531.75
2022-12-01T04:23:37.984Z,102530.19
2022-12-01T04:26:09.986Z,102532.69
2022-12-01T04:28:41.102Z,102531.53
2022-12-01T04:31:09.558Z,102532.22
2022-12-01T04:33:38.052Z,102531.13
2022-12-01T04:36:06.782Z,102530.53
2022-12-01T04:38:37.050Z,102529.88
2022-12-01T04:41:10.627Z,102520.50
2022-12-01T04:43:39.861Z,102531.25
2022-12-01T04:46:08.674Z,102525.91
2022-12-01T04:48:38.762Z,102528.56
2022-12-01T04:51:08.570Z,102529.41
2022-12-01T04:53:38.394Z,102524.28
2022-12-01T04:56:07.197Z,102530.19
2022-12-01T04:58:39.927Z,102538.06
2022-12-01T05:01:11.687Z,102531.13
2022-12-01T05:03:41.902Z,102538.22
2022-12-01T05:06:16.871Z,102525.78
2022-12-01T05:08:45.280Z,102533.34
2022-12-01T05:11:14.566Z,102526.38
2022-12-01T05:13:45.442Z,102525.78
2022-12-01T05:16:16.480Z,102531.88
2022-12-01T05:18:50.460Z,102537.00
2022-12-01T05:21:18.888Z,102536.25
2022-12-01T05:23:47.307Z,102538.59
2022-12-01T05:26:15.826Z,102532.88
2022-12-01T05:28:44.556Z,102537.47
2022-12-01T05:31:12.987Z,102533.34
2022-12-01T05:33:41.464Z,102532.63
2022-12-01T05:36:09.980Z,102525.53
2022-12-01T05:38:38.515Z,102536.97
2022-12-01T05:41:06.883Z,102536.50
2022-12-01T05:43:35.319Z,102535.41
2022-12-01T05:46:04.073Z,102533.09
2022-12-01T05:48:32.554Z,102537.00
2022-12-01T05:51:07.817Z,102546.28
2022-12-01T05:53:36.255Z,102537.94
2022-12-01T05:56:05.925Z,102533.50
2022-12-01T05:58:35.660Z,102528.81
2022-12-01T06:01:04.299Z,102533.75
2022-12-01T06:03:32.801Z,102526.81
2022-12-01T06:06:01.463Z,102535.00
2022-12-01T06:08:29.901Z,102542.00
2022-12-01T06:10:58.323Z,102545.97
2022-12-01T06:13:26.812Z,102543.84
2022-12-01T06:15:59.554Z,102541.38
2022-12-01T06:18:28.058Z,102541.53
2022-12-01T06:20:56.536Z,102553.09
2022-12-01T06:23:30.030Z,102545.88
2022-12-01T06:25:58.968Z,102545.50
2022-12-01T06:28:27.485Z,102548.50
2022-12-01T06:31:02.512Z,102542.94
2022-12-01T06:33:31.945Z,102550.38
2022-12-01T06:36:05.518Z,102552.97
2022-12-01T06:38:35.475Z,102552.38
2022-12-01T06:41:04.440Z,102545.66
2022-12-01T06:43:36.486Z,102545.31
2022-12-01T06:46:06.022Z,102551.63
2022-12-01T06:48:34.772Z,102560.16
2022-12-01T06:51:03.544Z,102553.63
2022-12-01T06:53:32.983Z,102558.91
2022-12-01T06:56:02.567Z,102571.00
2022-12-01T06:58:31.194Z,102561.47
2022-12-01T07:01:01.150Z,102573.25
2022-12-01T07:03:30.607Z,102572.25
2022-12-01T07:06:00.507Z,102571.03
2022-12-01T07:08:30.151Z,102575.84
2022-12-01T07:11:09.462Z,102575.88
2022-12-01T07:13:38.671Z,102587.63
2022-12-01T07:16:08.712Z,102597.56
2022-12-01T07:18:38.532Z,102583.91
2022-12-01T07:21:16.260Z,102578.56
2022-12-01T07:23:44.982Z,102590.88
2022-12-01T07:26:15.994Z,102601.41
2022-12-01T07:28:45.042Z,102585.72
2022-12-01T07:31:16.450Z,102593.44
2022-12-01T07:33:45.426Z,102594.69
2022-12-01T07:36:14.550Z,102602.22
2022-12-01T07:38:43.055Z,102593.84
2022-12-01T07:41:14.417Z,102599.75
2022-12-01T07:43:43.223Z,102605.13
2022-12-01T07:46:22.641Z,102612.00
2022-12-01T07:48:52.788Z,102601.72
2022-12-01T07:51:22.955Z,102609.41
2022-12-01T07:53:52.523Z,102591.22
2022-12-01T07:56:22.065Z,102604.44
2022-12-01T07:58:50.568Z,102601.28
2022-12-01T08:01:24.894Z,102610.81
2022-12-01T08:03:56.554Z,102606.31
2022-12-01T08:06:26.415Z,102607.84
2022-12-01T08:08:56.050Z,102611.78
2022-12-01T08:11:27.048Z,102611.53
2022-12-01T08:13:55.976Z,102616.22
2022-12-01T08:16:25.247Z,102616.31
2022-12-01T08:18:54.895Z,102626.53
2022-12-01T08:21:24.065Z,102622.00
2022-12-01T08:23:54.711Z,102623.38
2022-12-01T08:26:24.790Z,102627.31
2022-12-01T08:28:53.368Z,102630.22
2022-12-01T08:31:25.639Z,102631.63
2022-12-01T08:33:54.613Z,102638.34
2022-12-01T08:36:24.040Z,102636.66
2022-12-01T08:38:55.001Z,102640.34
2022-12-01T08:41:25.290Z,102638.91
2022-12-01T08:43:59.112Z,102638.56
2022-12-01T08:46:35.334Z,102642.94
2022-12-01T08:49:05.629Z,102645.66
2022-12-01T08:51:34.057Z,102638.69
2022-12-01T08:54:02.858Z,102639.22
2022-12-01T08:56:37.387Z,102650.88
2022-12-01T08:59:06.016Z,102651.97
2022-12-01T09:01:35.786Z,102640.50
2022-12-01T09:04:08.493Z,102641.84
2022-12-01T09:06:43.424Z,102636.66
2022-12-01T09:09:16.326Z,102639.84
2022-12-01T09:11:45.868Z,102643.56
2022-12-01T09:14:16.158Z,102639.56
2022-12-01T09:16:49.200Z,102643.31
2022-12-01T09:19:24.252Z,102640.41
2022-12-01T09:21:53.430Z,102637.91
2022-12-01T09:24:23.221Z,102646.44
2022-12-01T09:26:55.895Z,102641.00
2022-12-01T09:29:24.498Z,102641.06
2022-12-01T09:31:56.359Z,102647.84
2022-12-01T09:34:25.560Z,102639.41
2022-12-01T09:36:58.546Z,102655.34
2022-12-01T09:39:27.948Z,102648.34
2022-12-01T09:42:08.269Z,102646.25
2022-12-01T09:45:04.979Z,102648.69
2022-12-01T09:47:37.580Z,102649.59
2022-12-01T09:50:20.086Z,102646.50
2022-12-01T09:52:57.269Z,102650.31
2022-12-01T09:55:26.698Z,102647.56
2022-12-01T09:57:58.409Z,102657.13
2022-12-01T10:00:31.432Z,102648.44
2022-12-01T10:03:12.958Z,102642.25
2022-12-01T10:06:26.782Z,102649.38
2022-12-01T10:08:54.859Z,102637.00
2022-12-01T10:11:35.509Z,102641.47
2022-12-01T10:14:06.230Z,102644.59
2022-12-01T10:16:54.419Z,102644.72
2022-12-01T10:19:33.867Z,102643.13
2022-12-01T10:22:26.603Z,102635.78
2022-12-01T10:25:01.064Z,102637.75
2022-12-01T10:27:29.481Z,102628.25
2022-12-01T10:30:15.359Z,102641.38
2022-12-01T10:33:17.154Z,102635.19
2022-12-01T10:35:45.941Z,102623.53
2022-12-01T10:38:26.814Z,102629.91
2022-12-01T10:40:59.860Z,102623.50
2022-12-01T10:43:53.849Z,102623.06
2022-12-01T10:46:28.752Z,102620.63
2022-12-01T10:48:59.787Z,102615.06
2022-12-01T10:51:28.253Z,102620.13
2022-12-01T10:54:07.958Z,102607.84
2022-12-01T10:56:40.591Z,102612.06
2022-12-01T10:59:46.761Z,102614.53
2022-12-01T11:02:19.578Z,102615.25
2022-12-01T11:04:53.283Z,102605.19
2022-12-01T11:07:26.933Z,102606.25
2022-12-01T11:10:15.444Z,102597.50
2022-12-01T11:12:52.161Z,102597.72
2022-12-01T11:15:41.406Z,102605.19
2022-12-01T11:18:33.496Z,102607.13
2022-12-01T11:21:14.882Z,102601.44
2022-12-01T11:23:50.091Z,102603.09
2022-12-01T11:26:27.185Z,102599.09
2022-12-01T11:29:21.850Z,102599.22
2022-12-01T11:31:53.103Z,102591.78
2022-12-01T11:34:34.581Z,102593.50
2022-12-01T11:37:17.051Z,102584.94
2022-12-01T11:39:47.688Z,102582.50
2022-12-01T11:42:30.806Z,102583.22
2022-12-01T11:45:23.658Z,102587.63
2022-12-01T11:48:18.739Z,102573.88
2022-12-01T11:51:22.936Z,102571.72
2022-12-01T11:54:13.606Z,102576.34
2022-12-01T11:56:44.108Z,102575.50
2022-12-01T11:59:24.651Z,102578.22
2022-12-01T12:02:18.118Z,102581.59
2022-12-01T12:05:31.354Z,102568.25
2022-12-01T12:08:21.754Z,102575.81
2022-12-01T12:10:58.728Z,102571.09
2022-12-01T12:13:57.674Z,102563.25
2022-12-01T12:17:00.586Z,102563.19
2022-12-01T12:20:07.296Z,102572.84
2022-12-01T12:22:44.322Z,102558.41
2022-12-01T12:25:23.941Z,102566.84
2022-12-01T12:28:03.715Z,102565.91
2022-12-01T12:30:40.999Z,102557.47
2022-12-01T12:33:41.926Z,102555.19
2022-12-01T12:36:25.360Z,102561.81
2022-12-01T12:39:15.084Z,102556.72
2022-12-01T12:41:48.608Z,102557.94
2022-12-01T12:44:39.814Z,102553.53
2022-12-01T12:47:26.835Z,102552.13
2022-12-01T12:50:17.178Z,102553.22
2022-12-01T12:52:49.947Z,102539.28
2022-12-01T12:55:24.785Z,102547.94
2022-12-01T12:58:20.952Z,102535.03
2022-12-01T13:00:55.176Z,102541.75
2022-12-01T13:03:33.974Z,102532.19
2022-12-01T13:06:09.477Z,102530.13
2022-12-01T13:08:40.561Z,102532.75
2022-12-01T13:11:18.617Z,102537.97
2022-12-01T13:14:16.521Z,102532.59
2022-12-01T13:16:50.109Z,102532.22
2022-12-01T13:19:31.354Z,102536.50
2022-12-01T13:22:01.821Z,102530.41
2022-12-01T13:24:31.495Z,102528.16
2022-12-01T13:27:05.097Z,102528.25
2022-12-01T13:29:44.069Z,102520.88
2022-12-01T13:32:40.279Z,102518.97
2022-12-01T13:35:27.706Z,102511.81
2022-12-01T13:38:30.264Z,102499.78
2022-12-01T13:41:23.910Z,102509.63
2022-12-01T13:44:24.675Z,102504.16
2022-12-01T13:47:10.069Z,102501.09
2022-12-01T13:49:43.712Z,102506.00
2022-12-01T13:52:18.332Z,102507.00
2022-12-01T13:55:10.776Z,102507.34
2022-12-01T13:57:44.578Z,102501.88
2022-12-01T14:00:31.859Z,102511.50
2022-12-01T14:03:12.539Z,102506.38
2022-12-01T14:05:53.317Z,102496.63
2022-12-01T14:08:34.232Z,102491.63
2022-12-01T14:11:29.624Z,102494.06
2022-12-01T14:14:11.983Z,102501.41
2022-12-01T14:16:51.839Z,102503.34
2022-12-01T14:19:41.699Z,102502.38
2022-12-01T14:22:33.411Z,102515.75
2022-12-01T14:25:06.027Z,102504.91
2022-12-01T14:27:40.163Z,102506.47
2022-12-01T14:30:44.890Z,102502.34
2022-12-01T14:33:53.675Z,102506.25
2022-12-01T14:36:51.673Z,102518.69
2022-12-01T14:39:33.504Z,102511.47
2022-12-01T14:42:12.336Z,102512.59
2022-12-01T14:44:48.261Z,102514.72
2022-12-01T14:47:22.954Z,102525.44
2022-12-01T14:50:15.288Z,102523.50
2022-12-01T14:52:47.009Z,102523.38
2022-12-01T14:55:20.962Z,102526.72
2022-12-01T14:57:51.706Z,102519.66
2022-12-01T15:00:22.946Z,102508.41
2022-12-01T15:02:59.391Z,102511.81
2022-12-01T15:05:31.214Z,102504.53
2022-12-01T15:08:40.412Z,102504.91
2022-12-01T15:11:10.693Z,102508.78
2022-12-01T15:13:50.279Z,102504.16
2022-12-01T15:16:28.708Z,102494.03
2022-12-01T15:18:58.458Z,102501.34
2022-12-01T15:21:31.874Z,102501.00
2022-12-01T15:24:27.489Z,102510.16
2022-12-01T15:27:03.488Z,102511.50
2022-12-01T15:29:42.802Z,102515.13
2022-12-01T15:32:17.152Z,102522.34
2022-12-01T15:34:48.665Z,102516.84
2022-12-01T15:37:26.858Z,102520.75
2022-12-01T15:43:05.417Z,102513.94
2022-12-01T15:45:57.321Z,102526.94
2022-12-01T15:48:34.457Z,102529.06
2022-12-01T15:51:20.056Z,102527.47
2022-12-01T15:53:59.108Z,102518.44
2022-12-01T15:56:37.984Z,102519.94
2022-12-01T15:59:12.464Z,102519.22
2022-12-01T16:01:43.622Z,102512.97
2022-12-01T16:04:35.483Z,102514.25
2022-12-01T16:07:10.495Z,102515.75
2022-12-01T16:09:42.946Z,102525.97
2022-12-01T16:12:14.458Z,102527.66
2022-12-01T16:15:01.314Z,102519.88
2022-12-01T16:17:48.123Z,102520.63
2022-12-01T16:20:26.686Z,102516.75
2022-12-01T16:23:01.707Z,102525.88
2022-12-01T16:25:37.984Z,102520.41
2022-12-01T16:28:07.544Z,102522.59
2022-12-01T16:30:39.936Z,102528.94
2022-12-01T16:33:29.621Z,102527.25
2022-12-01T16:35:59.843Z,102531.88
2022-12-01T16:38:29.431Z,102528.34
2022-12-01T16:41:02.269Z,102538.22
2022-12-01T16:43:30.710Z,102535.03
2022-12-01T16:46:04.086Z,102535.53
2022-12-01T16:48:32.629Z,102538.44
2022-12-01T16:51:03.135Z,102538.47
2022-12-01T16:53:31.988Z,102528.59
2022-12-01T16:56:02.435Z,102528.47
2022-12-01T16:58:30.931Z,102532.00
2022-12-01T17:00:59.825Z,102527.59
2022-12-01T17:03:28.816Z,102524.94
2022-12-01T17:06:00.352Z,102523.44
2022-12-01T17:08:32.770Z,102530.06
2022-12-01T17:11:06.062Z,102532.84
2022-12-01T17:13:35.632Z,102529.31
2022-12-01T17:16:07.149Z,102529.94
2022-12-01T17:18:37.673Z,102534.66
2022-12-01T17:21:09.628Z,102529.50
2022-12-01T17:23:38.952Z,102538.44
2022-12-01T17:26:13.789Z,102537.56
2022-12-01T17:28:42.444Z,102531.81
2022-12-01T17:31:11.212Z,102532.59
2022-12-01T17:33:40.163Z,102534.06
2022-12-01T17:36:11.553Z,102532.34
2022-12-01T17:38:42.881Z,102528.94
2022-12-01T17:41:24.800Z,102526.63
2022-12-01T17:43:53.186Z,102526.75
2022-12-01T17:46:21.609Z,102524.69
2022-12-01T17:48:50.097Z,102528.94
2022-12-01T17:51:18.473Z,102521.63
2022-12-01T17:53:47.254Z,102528.47
2022-12-01T17:56:17.354Z,102525.78
2022-12-01T17:58:45.884Z,102528.34
2022-12-01T18:01:16.447Z,102529.06
2022-12-01T18:03:45.408Z,102520.91
2022-12-01T18:06:14.482Z,102536.88
2022-12-01T18:08:43.272Z,102539.44
2022-12-01T18:11:14.927Z,102536.38
2022-12-01T18:13:46.785Z,102537.13
2022-12-01T18:16:24.629Z,102534.06
2022-12-01T18:18:54.500Z,102537.97
2022-12-01T18:21:24.352Z,102530.06
2022-12-01T18:23:55.549Z,102524.53
2022-12-01T18:26:25.099Z,102523.56
2022-12-01T18:28:59.632Z,102517.72
2022-12-01T18:31:30.243Z,102517.00
2022-12-01T18:34:02.959Z,102516.41
2022-12-01T18:36:34.057Z,102511.88
2022-12-01T18:39:04.869Z,102517.13
2022-12-01T18:41:33.980Z,102521.78
2022-12-01T18:44:03.269Z,102511.16
2022-12-01T18:46:32.417Z,102507.88
2022-12-01T18:49:02.652Z,102515.28
2022-12-01T18:51:33.577Z,102517.25
2022-12-01T18:54:04.062Z,102521.16
2022-12-01T18:56:33.560Z,102522.84
2022-12-01T18:59:07.584Z,102520.66
2022-12-01T19:01:39.979Z,102522.84
2022-12-01T19:04:09.403Z,102521.00
2022-12-01T19:06:40.280Z,102511.50
2022-12-01T19:09:11.177Z,102522.13
2022-12-01T19:11:40.767Z,102521.25
2022-12-01T19:14:14.813Z,102512.19
2022-12-01T19:16:44.421Z,102515.63
2022-12-01T19:19:13.059Z,102508.06
2022-12-01T19:21:42.930Z,102508.47
2022-12-01T19:24:11.492Z,102505.00
2022-12-01T19:26:39.932Z,102506.66
2022-12-01T19:29:08.446Z,102518.19
2022-12-01T19:31:37.046Z,102519.41
2022-12-01T19:34:05.656Z,102513.63
2022-12-01T19:36:34.118Z,102519.25
2022-12-01T19:39:07.233Z,102507.69
2022-12-01T19:41:35.957Z,102520.06
2022-12-01T19:44:04.414Z,102515.00
2022-12-01T19:46:32.901Z,102520.75
2022-12-01T19:49:01.729Z,102507.59
2022-12-01T19:51:34.897Z,102512.81
2022-12-01T19:54:05.100Z,102510.88
2022-12-01T19:56:33.552Z,102509.91
2022-12-01T19:59:02.130Z,102521.25
2022-12-01T20:01:30.703Z,102520.28
2022-12-01T20:03:59.753Z,102510.88
2022-12-01T20:06:30.246Z,102512.31
2022-12-01T20:09:01.027Z,102510.94
2022-12-01T20:11:31.549Z,102508.31
2022-12-01T20:13:59.957Z,102515.81
2022-12-01T20:16:30.370Z,102516.25
2022-12-01T20:19:03.489Z,102516.88
2022-12-01T20:21:42.071Z,102504.91
2022-12-01T20:24:13.139Z,102517.50
2022-12-01T20:26:48.202Z,102515.28
2022-12-01T20:29:26.312Z,102512.66
2022-12-01T20:31:56.825Z,102516.56
2022-12-01T20:34:28.720Z,102514.19
2022-12-01T20:36:57.295Z,102517.94
2022-12-01T20:39:26.904Z,102520.63
2022-12-01T20:41:55.415Z,102523.97
2022-12-01T20:44:23.854Z,102521.97
2022-12-01T20:46:52.488Z,102515.88
2022-12-01T20:49:20.945Z,102514.53
2022-12-01T20:51:49.764Z,102509.97
2022-12-01T20:54:28.360Z,102508.88
2022-12-01T20:56:58.268Z,102498.28
2022-12-01T20:59:27.469Z,102501.69
2022-12-01T21:01:56.084Z,102499.19
2022-12-01T21:04:24.616Z,102497.72
2022-12-01T21:06:57.816Z,102498.84
2022-12-01T21:09:26.399Z,102499.19
2022-12-01T21:12:16.834Z,102495.50
2022-12-01T21:14:53.540Z,102497.34
2022-12-01T21:17:28.257Z,102488.69
2022-12-01T21:20:25.150Z,102483.03
2022-12-01T21:22:54.157Z,102484.75
2022-12-01T21:25:24.400Z,102488.88
2022-12-01T21:27:56.531Z,102479.91
2022-12-01T21:30:26.444Z,102476.50
2022-12-01T21:33:14.449Z,102477.03
2022-12-01T21:35:42.880Z,102479.38
2022-12-01T21:38:16.470Z,102476.97
2022-12-01T21:40:47.825Z,102476.25
2022-12-01T21:43:23.861Z,102474.69
2022-12-01T21:45:58.405Z,102470.78
2022-12-01T21:48:35.498Z,102479.06
2022-12-01T21:51:23.019Z,102472.50
2022-12-01T21:53:55.559Z,102471.66
2022-12-01T21:56:26.567Z,102469.22
2022-12-01T21:58:58.872Z,102469.44
2022-12-01T22:01:32.223Z,102462.75
2022-12-01T22:04:05.446Z,102456.75
2022-12-01T22:06:43.690Z,102454.09
2022-12-01T22:09:26.011Z,102451.16
2022-12-01T22:12:01.289Z,102452.38
2022-12-01T22:14:33.557Z,102448.97
2022-12-01T22:17:07.900Z,102439.25
2022-12-01T22:19:44.663Z,102422.53
2022-12-01T22:22:13.105Z,102428.38
2022-12-01T22:24:50.784Z,102432.66
2022-12-01T22:27:35.727Z,102429.78
2022-12-01T22:30:10.154Z,102442.59
2022-12-01T22:32:57.592Z,102434.94
2022-12-01T22:35:28.966Z,102443.47
2022-12-01T22:38:06.522Z,102443.00
2022-12-01T22:40:51.389Z,102437.72
2022-12-01T22:43:43.000Z,102431.66
2022-12-01T22:46:32.595Z,102433.28
2022-12-01T22:49:10.714Z,102442.84
2022-12-01T22:52:14.127Z,102439.66
2022-12-01T22:54:44.808Z,102436.25
2022-12-01T22:57:24.308Z,102447.84
2022-12-01T22:59:54.069Z,102447.72
2022-12-01T23:02:26.952Z,102444.44
2022-12-01T23:05:22.336Z,102444.09
2022-12-01T23:07:52.179Z,102439.69
2022-12-01T23:10:26.355Z,102435.28
2022-12-01T23:12:57.003Z,102440.31
2022-12-01T23:15:32.131Z,102442.84
2022-12-01T23:18:14.960Z,102441.66
2022-12-01T23:20:46.055Z,102431.50
2022-12-01T23:23:19.815Z,102424.25
2022-12-01T23:25:50.448Z,102433.59
2022-12-01T23:28:20.277Z,102418.59
2022-12-01T23:30:52.894Z,102428.22
2022-12-01T23:33:24.471Z,102428.22
2022-12-01T23:35:59.978Z,102422.88
2022-12-01T23:38:36.251Z,102411.56
2022-12-01T23:41:08.348Z,102423.25
2022-12-01T23:43:42.754Z,102411.72
2022-12-01T23:46:12.815Z,102415.81
2022-12-01T23:48:59.104Z,102416.22
2022-12-01T23:51:30.380Z,102413.47
2022-12-01T23:54:06.047Z,102417.22
2022-12-01T23:56:37.905Z,102415.56
2022-12-01T23:59:12.900Z,102420.44
